Terminal Aerodrome Forecast
Issued by NWS

Home | Current Version | Previous Version | Text Only | Print | Product List | Glossary On
Versions: 1 2 3 4 5 6 7 8 9 10 11 12 13 14 15 16 17
000
FTUS42 KMLB 022345
TAFSFB
TAF
KSFB 022345Z 0300/0324 15004KT P6SM VCTS SCT030CB BKN050 BKN250
     FM030100 21003KT P6SM SCT050 SCT250
     FM031300 26007KT P6SM SCT030 SCT250
     FM031900 30007KT P6SM VCTS SCT035CB SCT070=

USA.gov is the U.S. government's official web portal to all federal, state and local government web resources and services.